sensor_id;sensor_type;location;lat;lon;timestamp;P1;durP1;ratioP1;P2;durP2;ratioP2
40162;SDS011;25881;47.462;19.304;2023-04-08T00:01:03;45.65;;;27.15;;
40162;SDS011;25881;47.462;19.304;2023-04-08T00:03:28;47.47;;;29.50;;
40162;SDS011;25881;47.462;19.304;2023-04-08T00:05:54;42.10;;;26.25;;
40162;SDS011;25881;47.462;19.304;2023-04-08T00:08:19;43.87;;;26.20;;
40162;SDS011;25881;47.462;19.304;2023-04-08T00:10:45;42.77;;;26.90;;
40162;SDS011;25881;47.462;19.304;2023-04-08T00:13:10;48.63;;;29.70;;
40162;SDS011;25881;47.462;19.304;2023-04-08T00:15:35;41.83;;;26.50;;
40162;SDS011;25881;47.462;19.304;2023-04-08T00:18:00;46.33;;;27.35;;
40162;SDS011;25881;47.462;19.304;2023-04-08T00:20:26;43.17;;;25.97;;
40162;SDS011;25881;47.462;19.304;2023-04-08T00:22:51;42.70;;;25.63;;
40162;SDS011;25881;47.462;19.304;2023-04-08T00:25:16;42.57;;;26.23;;
40162;SDS011;25881;47.462;19.304;2023-04-08T00:27:42;44.90;;;26.55;;
40162;SDS011;25881;47.462;19.304;2023-04-08T00:30:07;46.07;;;27.00;;
40162;SDS011;25881;47.462;19.304;2023-04-08T00:32:32;42.63;;;26.48;;
40162;SDS011;25881;47.462;19.304;2023-04-08T00:34:57;46.53;;;27.10;;
40162;SDS011;25881;47.462;19.304;2023-04-08T00:37:23;43.73;;;26.63;;
40162;SDS011;25881;47.462;19.304;2023-04-08T00:39:49;37.95;;;24.88;;
40162;SDS011;25881;47.462;19.304;2023-04-08T00:42:15;43.35;;;26.08;;
40162;SDS011;25881;47.462;19.304;2023-04-08T00:44:41;48.10;;;27.17;;
40162;SDS011;25881;47.462;19.304;2023-04-08T00:47:06;42.50;;;26.87;;
40162;SDS011;25881;47.462;19.304;2023-04-08T00:49:31;41.07;;;25.13;;
40162;SDS011;25881;47.462;19.304;2023-04-08T00:51:57;45.93;;;28.03;;
40162;SDS011;25881;47.462;19.304;2023-04-08T00:54:23;41.92;;;26.45;;
40162;SDS011;25881;47.462;19.304;2023-04-08T00:56:48;44.55;;;27.27;;
40162;SDS011;25881;47.462;19.304;2023-04-08T00:59:13;45.23;;;26.80;;
40162;SDS011;25881;47.462;19.304;2023-04-08T01:09:17;45.97;;;27.92;;
40162;SDS011;25881;47.462;19.304;2023-04-08T01:11:43;50.05;;;29.05;;
40162;SDS011;25881;47.462;19.304;2023-04-08T01:14:10;50.75;;;29.92;;
40162;SDS011;25881;47.462;19.304;2023-04-08T01:16:38;48.88;;;30.02;;
40162;SDS011;25881;47.462;19.304;2023-04-08T01:19:06;46.65;;;28.08;;
40162;SDS011;25881;47.462;19.304;2023-04-08T01:21:32;50.22;;;30.92;;
40162;SDS011;25881;47.462;19.304;2023-04-08T01:24:04;51.43;;;31.13;;
40162;SDS011;25881;47.462;19.304;2023-04-08T01:26:30;46.47;;;29.35;;
40162;SDS011;25881;47.462;19.304;2023-04-08T01:28:57;50.90;;;31.20;;
40162;SDS011;25881;47.462;19.304;2023-04-08T01:31:23;53.08;;;30.70;;
40162;SDS011;25881;47.462;19.304;2023-04-08T01:33:49;47.55;;;29.77;;
40162;SDS011;25881;47.462;19.304;2023-04-08T01:36:15;53.65;;;31.55;;
40162;SDS011;25881;47.462;19.304;2023-04-08T01:38:41;57.65;;;33.45;;
40162;SDS011;25881;47.462;19.304;2023-04-08T01:41:07;52.25;;;30.95;;
40162;SDS011;25881;47.462;19.304;2023-04-08T01:43:34;50.43;;;31.33;;
40162;SDS011;25881;47.462;19.304;2023-04-08T01:45:59;51.38;;;30.50;;
40162;SDS011;25881;47.462;19.304;2023-04-08T01:48:25;49.42;;;30.70;;
40162;SDS011;25881;47.462;19.304;2023-04-08T01:50:51;49.72;;;30.67;;
40162;SDS011;25881;47.462;19.304;2023-04-08T01:53:16;49.22;;;29.80;;
40162;SDS011;25881;47.462;19.304;2023-04-08T01:55:42;50.63;;;28.70;;
40162;SDS011;25881;47.462;19.304;2023-04-08T01:58:08;52.90;;;31.70;;
40162;SDS011;25881;47.462;19.304;2023-04-08T02:00:35;53.90;;;29.73;;
40162;SDS011;25881;47.462;19.304;2023-04-08T02:03:01;51.75;;;29.88;;
40162;SDS011;25881;47.462;19.304;2023-04-08T02:05:27;47.10;;;29.40;;
40162;SDS011;25881;47.462;19.304;2023-04-08T02:07:52;52.30;;;31.60;;
40162;SDS011;25881;47.462;19.304;2023-04-08T02:10:17;46.38;;;28.20;;
40162;SDS011;25881;47.462;19.304;2023-04-08T02:12:43;48.25;;;29.00;;
40162;SDS011;25881;47.462;19.304;2023-04-08T02:15:08;48.45;;;29.75;;
40162;SDS011;25881;47.462;19.304;2023-04-08T02:20:02;46.07;;;28.63;;
40162;SDS011;25881;47.462;19.304;2023-04-08T02:23:30;44.25;;;28.98;;
40162;SDS011;25881;47.462;19.304;2023-04-08T02:25:24;41.83;;;27.73;;
40162;SDS011;25881;47.462;19.304;2023-04-08T02:27:51;48.15;;;27.85;;
40162;SDS011;25881;47.462;19.304;2023-04-08T02:30:16;47.15;;;28.80;;
40162;SDS011;25881;47.462;19.304;2023-04-08T02:32:42;44.65;;;27.30;;
40162;SDS011;25881;47.462;19.304;2023-04-08T02:35:08;46.83;;;28.80;;
40162;SDS011;25881;47.462;19.304;2023-04-08T02:37:34;49.00;;;30.15;;
40162;SDS011;25881;47.462;19.304;2023-04-08T02:40:00;47.58;;;29.73;;
40162;SDS011;25881;47.462;19.304;2023-04-08T02:42:25;44.63;;;26.55;;
40162;SDS011;25881;47.462;19.304;2023-04-08T02:44:50;44.92;;;27.25;;
40162;SDS011;25881;47.462;19.304;2023-04-08T02:47:16;52.03;;;29.55;;
40162;SDS011;25881;47.462;19.304;2023-04-08T02:49:41;49.23;;;27.77;;
40162;SDS011;25881;47.462;19.304;2023-04-08T02:52:06;45.77;;;25.83;;
40162;SDS011;25881;47.462;19.304;2023-04-08T02:54:31;45.13;;;27.37;;
40162;SDS011;25881;47.462;19.304;2023-04-08T02:56:57;47.63;;;27.20;;
40162;SDS011;25881;47.462;19.304;2023-04-08T02:59:22;48.40;;;28.70;;
40162;SDS011;25881;47.462;19.304;2023-04-08T03:01:47;45.95;;;27.58;;
40162;SDS011;25881;47.462;19.304;2023-04-08T03:04:12;46.00;;;28.20;;
40162;SDS011;25881;47.462;19.304;2023-04-08T03:06:38;50.33;;;28.93;;
40162;SDS011;25881;47.462;19.304;2023-04-08T03:09:03;44.93;;;27.93;;
40162;SDS011;25881;47.462;19.304;2023-04-08T03:11:29;44.70;;;26.90;;
40162;SDS011;25881;47.462;19.304;2023-04-08T03:13:55;44.65;;;25.92;;
40162;SDS011;25881;47.462;19.304;2023-04-08T03:16:20;44.08;;;27.05;;
40162;SDS011;25881;47.462;19.304;2023-04-08T03:18:45;44.95;;;27.00;;
40162;SDS011;25881;47.462;19.304;2023-04-08T03:21:11;40.10;;;24.33;;
40162;SDS011;25881;47.462;19.304;2023-04-08T03:23:36;41.47;;;25.60;;
40162;SDS011;25881;47.462;19.304;2023-04-08T03:26:01;45.87;;;27.47;;
40162;SDS011;25881;47.462;19.304;2023-04-08T03:28:26;40.73;;;24.87;;
40162;SDS011;25881;47.462;19.304;2023-04-08T03:30:51;39.90;;;24.00;;
40162;SDS011;25881;47.462;19.304;2023-04-08T03:33:17;36.27;;;22.67;;
40162;SDS011;25881;47.462;19.304;2023-04-08T03:35:42;34.57;;;22.07;;
40162;SDS011;25881;47.462;19.304;2023-04-08T03:38:07;41.77;;;23.83;;
40162;SDS011;25881;47.462;19.304;2023-04-08T03:40:33;35.72;;;21.75;;
40162;SDS011;25881;47.462;19.304;2023-04-08T03:42:58;41.77;;;23.33;;
40162;SDS011;25881;47.462;19.304;2023-04-08T03:45:23;40.03;;;24.20;;
40162;SDS011;25881;47.462;19.304;2023-04-08T03:47:48;35.57;;;21.23;;
40162;SDS011;25881;47.462;19.304;2023-04-08T03:50:14;36.85;;;22.10;;
40162;SDS011;25881;47.462;19.304;2023-04-08T03:52:39;30.43;;;20.00;;
40162;SDS011;25881;47.462;19.304;2023-04-08T03:55:05;34.63;;;21.40;;
40162;SDS011;25881;47.462;19.304;2023-04-08T03:57:30;37.17;;;20.73;;
40162;SDS011;25881;47.462;19.304;2023-04-08T03:59:55;33.10;;;20.17;;
40162;SDS011;25881;47.462;19.304;2023-04-08T04:02:20;30.50;;;19.33;;
40162;SDS011;25881;47.462;19.304;2023-04-08T04:04:46;31.77;;;18.73;;
40162;SDS011;25881;47.462;19.304;2023-04-08T04:07:11;37.28;;;22.83;;
40162;SDS011;25881;47.462;19.304;2023-04-08T04:09:36;51.77;;;32.47;;
40162;SDS011;25881;47.462;19.304;2023-04-08T04:12:01;38.23;;;25.70;;
40162;SDS011;25881;47.462;19.304;2023-04-08T04:14:27;29.02;;;19.13;;
40162;SDS011;25881;47.462;19.304;2023-04-08T04:16:52;32.87;;;20.70;;
40162;SDS011;25881;47.462;19.304;2023-04-08T04:19:17;32.03;;;20.50;;
40162;SDS011;25881;47.462;19.304;2023-04-08T04:21:42;34.45;;;20.77;;
40162;SDS011;25881;47.462;19.304;2023-04-08T04:24:08;31.98;;;19.52;;
40162;SDS011;25881;47.462;19.304;2023-04-08T04:26:33;33.40;;;20.13;;
40162;SDS011;25881;47.462;19.304;2023-04-08T04:28:58;32.43;;;20.07;;
40162;SDS011;25881;47.462;19.304;2023-04-08T04:31:23;34.40;;;20.57;;
40162;SDS011;25881;47.462;19.304;2023-04-08T04:33:52;31.48;;;20.50;;
40162;SDS011;25881;47.462;19.304;2023-04-08T04:36:17;35.63;;;22.63;;
40162;SDS011;25881;47.462;19.304;2023-04-08T04:38:43;36.70;;;22.33;;
40162;SDS011;25881;47.462;19.304;2023-04-08T04:41:09;34.90;;;22.67;;
40162;SDS011;25881;47.462;19.304;2023-04-08T04:43:34;34.03;;;22.80;;
40162;SDS011;25881;47.462;19.304;2023-04-08T04:45:59;31.73;;;22.47;;
40162;SDS011;25881;47.462;19.304;2023-04-08T04:48:26;31.02;;;21.20;;
40162;SDS011;25881;47.462;19.304;2023-04-08T04:50:54;44.25;;;26.85;;
40162;SDS011;25881;47.462;19.304;2023-04-08T04:53:20;35.35;;;23.25;;
40162;SDS011;25881;47.462;19.304;2023-04-08T04:55:45;36.90;;;25.30;;
40162;SDS011;25881;47.462;19.304;2023-04-08T04:58:10;39.50;;;24.80;;
40162;SDS011;25881;47.462;19.304;2023-04-08T05:00:36;41.33;;;27.17;;
40162;SDS011;25881;47.462;19.304;2023-04-08T05:03:01;44.40;;;29.85;;
40162;SDS011;25881;47.462;19.304;2023-04-08T05:05:26;38.43;;;27.70;;
40162;SDS011;25881;47.462;19.304;2023-04-08T05:07:51;37.13;;;24.30;;
40162;SDS011;25881;47.462;19.304;2023-04-08T05:10:17;36.30;;;23.20;;
40162;SDS011;25881;47.462;19.304;2023-04-08T05:12:43;43.63;;;27.40;;
40162;SDS011;25881;47.462;19.304;2023-04-08T05:15:08;47.87;;;30.67;;
40162;SDS011;25881;47.462;19.304;2023-04-08T05:17:33;44.58;;;28.17;;
40162;SDS011;25881;47.462;19.304;2023-04-08T05:19:58;39.77;;;25.37;;
40162;SDS011;25881;47.462;19.304;2023-04-08T05:22:24;41.92;;;24.35;;
40162;SDS011;25881;47.462;19.304;2023-04-08T05:24:49;38.03;;;24.27;;
40162;SDS011;25881;47.462;19.304;2023-04-08T05:27:15;41.33;;;24.43;;
40162;SDS011;25881;47.462;19.304;2023-04-08T05:29:40;42.08;;;26.15;;
40162;SDS011;25881;47.462;19.304;2023-04-08T05:32:05;42.57;;;25.60;;
40162;SDS011;25881;47.462;19.304;2023-04-08T05:34:31;34.97;;;22.65;;
40162;SDS011;25881;47.462;19.304;2023-04-08T05:36:56;36.53;;;24.67;;
40162;SDS011;25881;47.462;19.304;2023-04-08T05:39:21;38.23;;;24.20;;
40162;SDS011;25881;47.462;19.304;2023-04-08T05:41:46;50.87;;;29.53;;
40162;SDS011;25881;47.462;19.304;2023-04-08T05:44:12;42.30;;;26.70;;
40162;SDS011;25881;47.462;19.304;2023-04-08T05:49:05;43.77;;;24.83;;
40162;SDS011;25881;47.462;19.304;2023-04-08T05:51:31;39.73;;;24.03;;
40162;SDS011;25881;47.462;19.304;2023-04-08T05:53:56;43.13;;;24.97;;
40162;SDS011;25881;47.462;19.304;2023-04-08T05:56:21;39.22;;;24.10;;
40162;SDS011;25881;47.462;19.304;2023-04-08T05:58:46;38.43;;;23.70;;
40162;SDS011;25881;47.462;19.304;2023-04-08T06:01:12;44.30;;;25.55;;
40162;SDS011;25881;47.462;19.304;2023-04-08T06:03:37;41.13;;;25.42;;
40162;SDS011;25881;47.462;19.304;2023-04-08T06:06:03;40.50;;;24.13;;
40162;SDS011;25881;47.462;19.304;2023-04-08T06:08:33;40.25;;;23.67;;
40162;SDS011;25881;47.462;19.304;2023-04-08T06:10:58;38.27;;;24.73;;
40162;SDS011;25881;47.462;19.304;2023-04-08T06:13:23;39.90;;;22.97;;
40162;SDS011;25881;47.462;19.304;2023-04-08T06:15:49;39.80;;;24.35;;
40162;SDS011;25881;47.462;19.304;2023-04-08T06:18:15;42.17;;;24.65;;
40162;SDS011;25881;47.462;19.304;2023-04-08T06:20:40;41.00;;;24.58;;
40162;SDS011;25881;47.462;19.304;2023-04-08T06:23:06;44.87;;;25.07;;
40162;SDS011;25881;47.462;19.304;2023-04-08T06:25:31;40.87;;;23.73;;
40162;SDS011;25881;47.462;19.304;2023-04-08T06:27:56;41.90;;;23.95;;
40162;SDS011;25881;47.462;19.304;2023-04-08T06:30:22;43.47;;;25.13;;
40162;SDS011;25881;47.462;19.304;2023-04-08T06:32:47;43.63;;;25.23;;
40162;SDS011;25881;47.462;19.304;2023-04-08T06:35:12;39.80;;;25.80;;
40162;SDS011;25881;47.462;19.304;2023-04-08T06:37:38;41.38;;;25.02;;
40162;SDS011;25881;47.462;19.304;2023-04-08T06:40:03;39.70;;;24.83;;
40162;SDS011;25881;47.462;19.304;2023-04-08T06:42:29;39.78;;;23.65;;
40162;SDS011;25881;47.462;19.304;2023-04-08T06:44:54;38.07;;;23.80;;
40162;SDS011;25881;47.462;19.304;2023-04-08T06:47:20;40.13;;;23.30;;
40162;SDS011;25881;47.462;19.304;2023-04-08T06:49:45;35.45;;;23.40;;
40162;SDS011;25881;47.462;19.304;2023-04-08T06:52:11;37.25;;;23.60;;
40162;SDS011;25881;47.462;19.304;2023-04-08T06:54:36;33.30;;;21.52;;
40162;SDS011;25881;47.462;19.304;2023-04-08T06:57:01;34.87;;;22.00;;
40162;SDS011;25881;47.462;19.304;2023-04-08T06:59:28;38.67;;;23.60;;
40162;SDS011;25881;47.462;19.304;2023-04-08T07:01:54;38.47;;;23.75;;
40162;SDS011;25881;47.462;19.304;2023-04-08T07:04:19;37.70;;;24.38;;
40162;SDS011;25881;47.462;19.304;2023-04-08T07:06:45;37.80;;;24.67;;
40162;SDS011;25881;47.462;19.304;2023-04-08T07:09:10;39.17;;;24.48;;
40162;SDS011;25881;47.462;19.304;2023-04-08T07:11:36;44.88;;;25.10;;
40162;SDS011;25881;47.462;19.304;2023-04-08T07:14:01;43.00;;;25.17;;
40162;SDS011;25881;47.462;19.304;2023-04-08T07:16:26;44.00;;;28.02;;
40162;SDS011;25881;47.462;19.304;2023-04-08T07:18:52;47.10;;;27.77;;
40162;SDS011;25881;47.462;19.304;2023-04-08T07:21:17;44.40;;;27.13;;
40162;SDS011;25881;47.462;19.304;2023-04-08T07:23:42;38.17;;;23.60;;
40162;SDS011;25881;47.462;19.304;2023-04-08T07:26:08;39.47;;;23.00;;
40162;SDS011;25881;47.462;19.304;2023-04-08T07:28:33;39.87;;;23.83;;
40162;SDS011;25881;47.462;19.304;2023-04-08T07:31:11;35.90;;;22.40;;
40162;SDS011;25881;47.462;19.304;2023-04-08T07:36:02;32.53;;;20.52;;
40162;SDS011;25881;47.462;19.304;2023-04-08T07:38:27;32.97;;;20.02;;
40162;SDS011;25881;47.462;19.304;2023-04-08T07:40:52;32.53;;;21.57;;
40162;SDS011;25881;47.462;19.304;2023-04-08T07:43:17;35.77;;;22.37;;
40162;SDS011;25881;47.462;19.304;2023-04-08T07:45:43;40.27;;;24.50;;
40162;SDS011;25881;47.462;19.304;2023-04-08T07:48:08;36.10;;;22.63;;
40162;SDS011;25881;47.462;19.304;2023-04-08T07:50:35;36.10;;;22.95;;
40162;SDS011;25881;47.462;19.304;2023-04-08T07:53:00;36.42;;;23.17;;
40162;SDS011;25881;47.462;19.304;2023-04-08T07:55:25;37.40;;;24.03;;
40162;SDS011;25881;47.462;19.304;2023-04-08T07:57:51;39.80;;;25.37;;
40162;SDS011;25881;47.462;19.304;2023-04-08T08:00:16;39.40;;;23.83;;
40162;SDS011;25881;47.462;19.304;2023-04-08T08:02:45;35.15;;;23.27;;
40162;SDS011;25881;47.462;19.304;2023-04-08T08:05:11;39.15;;;24.13;;
40162;SDS011;25881;47.462;19.304;2023-04-08T08:07:37;44.27;;;27.23;;
40162;SDS011;25881;47.462;19.304;2023-04-08T08:10:02;47.40;;;28.73;;
40162;SDS011;25881;47.462;19.304;2023-04-08T08:12:27;39.58;;;25.50;;
40162;SDS011;25881;47.462;19.304;2023-04-08T08:14:52;42.70;;;26.37;;
40162;SDS011;25881;47.462;19.304;2023-04-08T08:17:19;41.80;;;27.20;;
40162;SDS011;25881;47.462;19.304;2023-04-08T08:19:44;42.40;;;27.65;;
40162;SDS011;25881;47.462;19.304;2023-04-08T08:22:10;42.00;;;27.30;;
40162;SDS011;25881;47.462;19.304;2023-04-08T08:24:35;42.28;;;26.90;;
40162;SDS011;25881;47.462;19.304;2023-04-08T08:27:02;42.50;;;27.08;;
40162;SDS011;25881;47.462;19.304;2023-04-08T08:29:29;43.00;;;27.02;;
40162;SDS011;25881;47.462;19.304;2023-04-08T08:31:54;39.08;;;25.55;;
40162;SDS011;25881;47.462;19.304;2023-04-08T08:34:19;40.73;;;25.17;;
40162;SDS011;25881;47.462;19.304;2023-04-08T08:36:45;36.08;;;24.02;;
40162;SDS011;25881;47.462;19.304;2023-04-08T08:39:10;42.13;;;26.65;;
40162;SDS011;25881;47.462;19.304;2023-04-08T08:41:35;36.95;;;24.90;;
40162;SDS011;25881;47.462;19.304;2023-04-08T08:44:01;35.67;;;23.02;;
40162;SDS011;25881;47.462;19.304;2023-04-08T08:46:29;38.80;;;24.83;;
40162;SDS011;25881;47.462;19.304;2023-04-08T08:48:54;40.05;;;26.20;;
40162;SDS011;25881;47.462;19.304;2023-04-08T08:51:20;41.30;;;26.88;;
40162;SDS011;25881;47.462;19.304;2023-04-08T08:53:46;43.67;;;28.23;;
40162;SDS011;25881;47.462;19.304;2023-04-08T08:56:11;37.43;;;24.97;;
40162;SDS011;25881;47.462;19.304;2023-04-08T08:58:36;40.90;;;26.83;;
40162;SDS011;25881;47.462;19.304;2023-04-08T09:01:25;37.92;;;24.45;;
40162;SDS011;25881;47.462;19.304;2023-04-08T09:03:49;39.03;;;25.83;;
40162;SDS011;25881;47.462;19.304;2023-04-08T09:06:30;39.97;;;24.38;;
40162;SDS011;25881;47.462;19.304;2023-04-08T09:08:56;38.13;;;25.20;;
40162;SDS011;25881;47.462;19.304;2023-04-08T09:11:21;36.03;;;24.20;;
40162;SDS011;25881;47.462;19.304;2023-04-08T09:13:47;33.97;;;23.43;;
40162;SDS011;25881;47.462;19.304;2023-04-08T09:16:13;34.45;;;22.75;;
40162;SDS011;25881;47.462;19.304;2023-04-08T09:18:39;31.17;;;21.73;;
40162;SDS011;25881;47.462;19.304;2023-04-08T09:21:08;34.70;;;22.33;;
40162;SDS011;25881;47.462;19.304;2023-04-08T09:23:37;35.58;;;23.65;;
40162;SDS011;25881;47.462;19.304;2023-04-08T09:26:07;35.58;;;24.75;;
40162;SDS011;25881;47.462;19.304;2023-04-08T09:28:33;36.65;;;24.65;;
40162;SDS011;25881;47.462;19.304;2023-04-08T09:30:58;33.63;;;23.27;;
40162;SDS011;25881;47.462;19.304;2023-04-08T09:33:33;36.87;;;25.00;;
40162;SDS011;25881;47.462;19.304;2023-04-08T09:35:58;37.53;;;24.40;;
40162;SDS011;25881;47.462;19.304;2023-04-08T09:38:23;36.93;;;25.63;;
40162;SDS011;25881;47.462;19.304;2023-04-08T09:40:48;37.73;;;24.07;;
40162;SDS011;25881;47.462;19.304;2023-04-08T09:43:14;41.92;;;27.13;;
40162;SDS011;25881;47.462;19.304;2023-04-08T09:45:43;37.90;;;26.15;;
40162;SDS011;25881;47.462;19.304;2023-04-08T09:48:21;38.63;;;26.42;;
40162;SDS011;25881;47.462;19.304;2023-04-08T09:50:49;40.65;;;27.23;;
40162;SDS011;25881;47.462;19.304;2023-04-08T09:53:18;38.97;;;25.88;;
40162;SDS011;25881;47.462;19.304;2023-04-08T09:55:44;39.65;;;26.15;;
40162;SDS011;25881;47.462;19.304;2023-04-08T09:58:14;46.85;;;29.92;;
40162;SDS011;25881;47.462;19.304;2023-04-08T10:00:48;37.70;;;27.23;;
40162;SDS011;25881;47.462;19.304;2023-04-08T10:05:48;35.05;;;25.08;;
40162;SDS011;25881;47.462;19.304;2023-04-08T10:08:13;40.45;;;26.33;;
40162;SDS011;25881;47.462;19.304;2023-04-08T10:10:39;42.05;;;29.10;;
40162;SDS011;25881;47.462;19.304;2023-04-08T10:13:05;36.30;;;26.02;;
40162;SDS011;25881;47.462;19.304;2023-04-08T10:15:31;36.70;;;25.42;;
40162;SDS011;25881;47.462;19.304;2023-04-08T10:23:03;37.35;;;26.52;;
40162;SDS011;25881;47.462;19.304;2023-04-08T10:27:55;34.22;;;23.90;;
40162;SDS011;25881;47.462;19.304;2023-04-08T10:32:51;38.40;;;26.50;;
40162;SDS011;25881;47.462;19.304;2023-04-08T10:35:17;33.38;;;22.92;;
40162;SDS011;25881;47.462;19.304;2023-04-08T10:37:42;36.67;;;24.95;;
40162;SDS011;25881;47.462;19.304;2023-04-08T10:40:18;40.67;;;27.98;;
40162;SDS011;25881;47.462;19.304;2023-04-08T10:42:43;37.00;;;25.42;;
40162;SDS011;25881;47.462;19.304;2023-04-08T10:45:08;40.13;;;26.07;;
40162;SDS011;25881;47.462;19.304;2023-04-08T10:47:33;39.15;;;27.50;;
40162;SDS011;25881;47.462;19.304;2023-04-08T10:49:59;38.70;;;27.17;;
40162;SDS011;25881;47.462;19.304;2023-04-08T10:52:25;33.40;;;24.63;;
40162;SDS011;25881;47.462;19.304;2023-04-08T10:54:51;35.10;;;24.45;;
40162;SDS011;25881;47.462;19.304;2023-04-08T10:57:26;39.38;;;26.88;;
40162;SDS011;25881;47.462;19.304;2023-04-08T10:59:51;34.50;;;24.80;;
40162;SDS011;25881;47.462;19.304;2023-04-08T11:02:16;34.43;;;25.10;;
40162;SDS011;25881;47.462;19.304;2023-04-08T11:04:42;31.43;;;23.10;;
40162;SDS011;25881;47.462;19.304;2023-04-08T11:07:08;30.38;;;22.38;;
40162;SDS011;25881;47.462;19.304;2023-04-08T11:09:33;32.10;;;22.03;;
40162;SDS011;25881;47.462;19.304;2023-04-08T11:11:59;31.85;;;22.60;;
40162;SDS011;25881;47.462;19.304;2023-04-08T11:14:25;33.25;;;23.58;;
40162;SDS011;25881;47.462;19.304;2023-04-08T11:16:51;30.05;;;21.35;;
40162;SDS011;25881;47.462;19.304;2023-04-08T11:19:16;33.10;;;23.42;;
40162;SDS011;25881;47.462;19.304;2023-04-08T11:21:42;36.75;;;24.08;;
40162;SDS011;25881;47.462;19.304;2023-04-08T11:24:10;32.87;;;23.07;;
40162;SDS011;25881;47.462;19.304;2023-04-08T11:26:36;33.17;;;23.80;;
40162;SDS011;25881;47.462;19.304;2023-04-08T11:29:02;32.50;;;22.95;;
40162;SDS011;25881;47.462;19.304;2023-04-08T11:31:27;43.85;;;27.23;;
40162;SDS011;25881;47.462;19.304;2023-04-08T11:33:53;74.47;;;36.10;;
40162;SDS011;25881;47.462;19.304;2023-04-08T11:36:22;61.13;;;35.55;;
40162;SDS011;25881;47.462;19.304;2023-04-08T11:38:47;46.15;;;30.40;;
40162;SDS011;25881;47.462;19.304;2023-04-08T11:41:13;43.70;;;27.80;;
40162;SDS011;25881;47.462;19.304;2023-04-08T11:43:38;30.05;;;22.48;;
40162;SDS011;25881;47.462;19.304;2023-04-08T11:46:11;27.58;;;20.98;;
40162;SDS011;25881;47.462;19.304;2023-04-08T11:48:36;26.90;;;20.35;;
40162;SDS011;25881;47.462;19.304;2023-04-08T11:51:05;29.30;;;21.40;;
40162;SDS011;25881;47.462;19.304;2023-04-08T11:53:34;30.90;;;21.92;;
40162;SDS011;25881;47.462;19.304;2023-04-08T11:56:18;30.25;;;21.70;;
40162;SDS011;25881;47.462;19.304;2023-04-08T11:58:44;32.47;;;22.52;;
40162;SDS011;25881;47.462;19.304;2023-04-08T12:01:09;35.03;;;23.85;;
40162;SDS011;25881;47.462;19.304;2023-04-08T12:03:35;34.80;;;24.08;;
40162;SDS011;25881;47.462;19.304;2023-04-08T12:06:00;30.33;;;21.87;;
40162;SDS011;25881;47.462;19.304;2023-04-08T12:08:25;33.05;;;22.98;;
40162;SDS011;25881;47.462;19.304;2023-04-08T12:10:52;38.25;;;25.60;;
40162;SDS011;25881;47.462;19.304;2023-04-08T12:13:17;35.85;;;25.65;;
40162;SDS011;25881;47.462;19.304;2023-04-08T12:15:43;32.27;;;24.00;;
40162;SDS011;25881;47.462;19.304;2023-04-08T12:18:08;31.08;;;22.88;;
40162;SDS011;25881;47.462;19.304;2023-04-08T12:20:33;30.83;;;21.77;;
40162;SDS011;25881;47.462;19.304;2023-04-08T12:22:59;31.88;;;23.05;;
40162;SDS011;25881;47.462;19.304;2023-04-08T12:25:24;28.53;;;22.00;;
40162;SDS011;25881;47.462;19.304;2023-04-08T12:27:49;28.90;;;22.10;;
40162;SDS011;25881;47.462;19.304;2023-04-08T12:30:14;34.13;;;24.97;;
40162;SDS011;25881;47.462;19.304;2023-04-08T12:32:40;32.73;;;23.77;;
40162;SDS011;25881;47.462;19.304;2023-04-08T12:35:06;28.73;;;20.90;;
40162;SDS011;25881;47.462;19.304;2023-04-08T12:37:32;24.35;;;18.40;;
40162;SDS011;25881;47.462;19.304;2023-04-08T12:39:57;23.90;;;17.47;;
40162;SDS011;25881;47.462;19.304;2023-04-08T12:42:22;21.13;;;15.27;;
40162;SDS011;25881;47.462;19.304;2023-04-08T12:44:47;18.15;;;13.93;;
40162;SDS011;25881;47.462;19.304;2023-04-08T12:47:13;21.30;;;14.97;;
40162;SDS011;25881;47.462;19.304;2023-04-08T12:49:38;22.17;;;16.57;;
40162;SDS011;25881;47.462;19.304;2023-04-08T12:52:03;19.10;;;14.50;;
40162;SDS011;25881;47.462;19.304;2023-04-08T12:54:29;21.10;;;14.55;;
40162;SDS011;25881;47.462;19.304;2023-04-08T12:56:55;20.67;;;14.98;;
40162;SDS011;25881;47.462;19.304;2023-04-08T12:59:21;20.65;;;15.35;;
40162;SDS011;25881;47.462;19.304;2023-04-08T13:01:46;29.27;;;21.10;;
40162;SDS011;25881;47.462;19.304;2023-04-08T13:04:11;21.13;;;16.77;;
40162;SDS011;25881;47.462;19.304;2023-04-08T13:06:37;24.83;;;18.45;;
40162;SDS011;25881;47.462;19.304;2023-04-08T13:09:02;25.97;;;19.47;;
40162;SDS011;25881;47.462;19.304;2023-04-08T13:11:27;26.50;;;19.50;;
40162;SDS011;25881;47.462;19.304;2023-04-08T13:13:53;24.13;;;18.03;;
40162;SDS011;25881;47.462;19.304;2023-04-08T13:16:18;24.13;;;18.03;;
40162;SDS011;25881;47.462;19.304;2023-04-08T13:18:43;26.15;;;19.48;;
40162;SDS011;25881;47.462;19.304;2023-04-08T13:21:09;28.33;;;20.95;;
40162;SDS011;25881;47.462;19.304;2023-04-08T13:23:34;28.70;;;19.53;;
40162;SDS011;25881;47.462;19.304;2023-04-08T13:25:59;36.65;;;25.52;;
40162;SDS011;25881;47.462;19.304;2023-04-08T13:28:25;32.78;;;23.35;;
40162;SDS011;25881;47.462;19.304;2023-04-08T13:30:50;36.22;;;24.60;;
40162;SDS011;25881;47.462;19.304;2023-04-08T13:33:16;32.03;;;22.25;;
40162;SDS011;25881;47.462;19.304;2023-04-08T13:35:41;30.55;;;20.92;;
40162;SDS011;25881;47.462;19.304;2023-04-08T13:38:06;33.53;;;24.45;;
40162;SDS011;25881;47.462;19.304;2023-04-08T13:40:32;27.92;;;20.23;;
40162;SDS011;25881;47.462;19.304;2023-04-08T13:42:57;25.90;;;19.73;;
40162;SDS011;25881;47.462;19.304;2023-04-08T13:45:23;27.63;;;18.67;;
40162;SDS011;25881;47.462;19.304;2023-04-08T13:47:48;24.83;;;17.27;;
40162;SDS011;25881;47.462;19.304;2023-04-08T13:50:13;26.92;;;16.77;;
40162;SDS011;25881;47.462;19.304;2023-04-08T13:52:38;33.10;;;20.23;;
40162;SDS011;25881;47.462;19.304;2023-04-08T13:55:04;26.23;;;17.97;;
40162;SDS011;25881;47.462;19.304;2023-04-08T13:57:29;17.20;;;12.80;;
40162;SDS011;25881;47.462;19.304;2023-04-08T13:59:55;17.27;;;12.90;;
40162;SDS011;25881;47.462;19.304;2023-04-08T14:02:20;21.67;;;15.63;;
40162;SDS011;25881;47.462;19.304;2023-04-08T14:04:45;20.33;;;16.03;;
40162;SDS011;25881;47.462;19.304;2023-04-08T14:07:11;20.15;;;15.98;;
40162;SDS011;25881;47.462;19.304;2023-04-08T14:09:37;21.63;;;15.45;;
40162;SDS011;25881;47.462;19.304;2023-04-08T14:12:03;21.20;;;15.63;;
40162;SDS011;25881;47.462;19.304;2023-04-08T14:14:28;20.83;;;16.25;;
40162;SDS011;25881;47.462;19.304;2023-04-08T14:16:53;17.70;;;13.90;;
40162;SDS011;25881;47.462;19.304;2023-04-08T14:19:18;18.63;;;14.07;;
40162;SDS011;25881;47.462;19.304;2023-04-08T14:21:44;16.88;;;13.52;;
40162;SDS011;25881;47.462;19.304;2023-04-08T14:24:09;17.45;;;12.75;;
40162;SDS011;25881;47.462;19.304;2023-04-08T14:26:34;16.92;;;13.90;;
40162;SDS011;25881;47.462;19.304;2023-04-08T14:29:04;25.08;;;16.65;;